ANA56S RJTT-RJBB
Flight info
| Callsign | ANA56S |
|---|---|
| Flight time | 1h 13m |
| Altitude | 32000 |
| Route | LAXAS Y56 TOHME Y54 KOHWA Y544 DUBKA |
| Aircraft | A20N/M-SDE2E3FGHIRWXY/LB1 |
Departure
| Time | 2026-05-07 18:17 |
|---|---|
| Airport | Tokyo Haneda International Airport (RJTT) |
Arrival
| Time | 2026-05-07 19:30 |
|---|---|
| Airport | Kansai International Airport (RJBB) |
| Time | Latitude | Longitude | Altitude | Speed | Heading |
|---|---|---|---|---|---|
| 2026-05-07 18:05 | 35.56348 | 139.77916 | 23 ft | 0 kts | 330° |
| 2026-05-07 18:11 | 35.56336 | 139.77924 | 26 ft | 4 kts | 330° |
| 2026-05-07 18:11 | 35.56311 | 139.77942 | 25 ft | 4 kts | 330° |
| 2026-05-07 18:12 | 35.56286 | 139.77960 | 24 ft | 4 kts | 330° |
| 2026-05-07 18:12 | 35.56258 | 139.77969 | 25 ft | 4 kts | 19° |
| 2026-05-07 18:12 | 35.56242 | 139.77956 | 24 ft | 0 kts | 58° |
| 2026-05-07 18:14 | 35.56245 | 139.77962 | 24 ft | 4 kts | 58° |
| 2026-05-07 18:14 | 35.56278 | 139.78027 | 22 ft | 14 kts | 60° |
| 2026-05-07 18:15 | 35.56346 | 139.78157 | 22 ft | 21 kts | 42° |
| 2026-05-07 18:15 | 35.56478 | 139.78113 | 26 ft | 23 kts | 330° |
| 2026-05-07 18:15 | 35.56593 | 139.77950 | 24 ft | 28 kts | 305° |
| 2026-05-07 18:15 | 35.56705 | 139.77744 | 24 ft | 26 kts | 302° |
| 2026-05-07 18:16 | 35.56722 | 139.77683 | 23 ft | 2 kts | 241° |
| 2026-05-07 18:16 | 35.56633 | 139.77608 | 27 ft | 42 kts | 215° |
| 2026-05-07 18:16 | 35.56207 | 139.77241 | 26 ft | 104 kts | 216° |
| 2026-05-07 18:16 | 35.55479 | 139.76620 | 32 ft | 149 kts | 214° |
| 2026-05-07 18:17 | 35.54579 | 139.75891 | 387 ft | 158 kts | 205° |
| 2026-05-07 18:17 | 35.53535 | 139.75573 | 1031 ft | 152 kts | 181° |
| 2026-05-07 18:17 | 35.52505 | 139.75713 | 1708 ft | 148 kts | 175° |
| 2026-05-07 18:17 | 35.51488 | 139.75916 | 1956 ft | 151 kts | 178° |
| 2026-05-07 18:18 | 35.50383 | 139.76057 | 2139 ft | 169 kts | 181° |
| 2026-05-07 18:18 | 35.49154 | 139.76127 | 2548 ft | 189 kts | 183° |
| 2026-05-07 18:18 | 35.47748 | 139.76154 | 2986 ft | 213 kts | 184° |
| 2026-05-07 18:18 | 35.46213 | 139.76160 | 3468 ft | 234 kts | 184° |
| 2026-05-07 18:19 | 35.44501 | 139.76163 | 4031 ft | 255 kts | 184° |
| 2026-05-07 18:19 | 35.42711 | 139.76171 | 4956 ft | 258 kts | 184° |
| 2026-05-07 18:19 | 35.40908 | 139.76182 | 5960 ft | 260 kts | 185° |
| 2026-05-07 18:19 | 35.39082 | 139.76191 | 6889 ft | 264 kts | 185° |
| 2026-05-07 18:20 | 35.37236 | 139.76196 | 7788 ft | 267 kts | 185° |
| 2026-05-07 18:20 | 35.35361 | 139.76298 | 8684 ft | 274 kts | 179° |
| 2026-05-07 18:20 | 35.33467 | 139.76791 | 9592 ft | 282 kts | 170° |
| 2026-05-07 18:20 | 35.31570 | 139.77479 | 10364 ft | 289 kts | 170° |
| 2026-05-07 18:21 | 35.29563 | 139.78189 | 10682 ft | 312 kts | 169° |
| 2026-05-07 18:21 | 35.27397 | 139.78947 | 10958 ft | 334 kts | 169° |
| 2026-05-07 18:21 | 35.25139 | 139.79743 | 11619 ft | 340 kts | 169° |
| 2026-05-07 18:21 | 35.22825 | 139.80286 | 12380 ft | 337 kts | 184° |
| 2026-05-07 18:22 | 35.20535 | 139.79885 | 13120 ft | 332 kts | 202° |
| 2026-05-07 18:22 | 35.19151 | 139.79111 | 13600 ft | 331 kts | 214° |
| 2026-05-07 18:22 | 35.17018 | 139.76486 | 14442 ft | 332 kts | 240° |
| 2026-05-07 18:22 | 35.16152 | 139.73855 | 15074 ft | 337 kts | 253° |
| 2026-05-07 18:23 | 35.15570 | 139.71063 | 15705 ft | 341 kts | 255° |
| 2026-05-07 18:23 | 35.14992 | 139.68235 | 16328 ft | 345 kts | 254° |
| 2026-05-07 18:23 | 35.14343 | 139.65400 | 16943 ft | 349 kts | 252° |
| 2026-05-07 18:23 | 35.13627 | 139.62551 | 17557 ft | 352 kts | 251° |
| 2026-05-07 18:24 | 35.12868 | 139.59692 | 18162 ft | 356 kts | 251° |
| 2026-05-07 18:24 | 35.12086 | 139.56816 | 18689 ft | 358 kts | 251° |
| 2026-05-07 18:24 | 35.11294 | 139.53924 | 19254 ft | 360 kts | 251° |
| 2026-05-07 18:24 | 35.10495 | 139.51011 | 19821 ft | 362 kts | 251° |
| 2026-05-07 18:25 | 35.09692 | 139.48081 | 20359 ft | 365 kts | 251° |
| 2026-05-07 18:25 | 35.08883 | 139.45129 | 20914 ft | 367 kts | 251° |
| 2026-05-07 18:25 | 35.08070 | 139.42164 | 21464 ft | 370 kts | 251° |
| 2026-05-07 18:25 | 35.07250 | 139.39176 | 22007 ft | 372 kts | 251° |
| 2026-05-07 18:26 | 35.06424 | 139.36169 | 22543 ft | 375 kts | 251° |
| 2026-05-07 18:26 | 35.05591 | 139.33141 | 23080 ft | 378 kts | 251° |
| 2026-05-07 18:26 | 35.04751 | 139.30091 | 23600 ft | 380 kts | 251° |
| 2026-05-07 18:26 | 35.03905 | 139.27019 | 24025 ft | 383 kts | 251° |
| 2026-05-07 18:27 | 35.03101 | 139.23909 | 24466 ft | 386 kts | 255° |
| 2026-05-07 18:27 | 35.02531 | 139.20696 | 24889 ft | 389 kts | 258° |
| 2026-05-07 18:27 | 35.01994 | 139.17447 | 25338 ft | 392 kts | 258° |
| 2026-05-07 18:27 | 35.01447 | 139.14176 | 25762 ft | 395 kts | 258° |
| 2026-05-07 18:28 | 35.00891 | 139.10876 | 26183 ft | 398 kts | 258° |
| 2026-05-07 18:28 | 35.00337 | 139.07594 | 26598 ft | 401 kts | 258° |
| 2026-05-07 18:28 | 34.99770 | 139.04249 | 26981 ft | 404 kts | 258° |
| 2026-05-07 18:28 | 34.99199 | 139.00882 | 27380 ft | 407 kts | 258° |
| 2026-05-07 18:29 | 34.98743 | 138.97466 | 27762 ft | 410 kts | 263° |
| 2026-05-07 18:29 | 34.98545 | 138.93974 | 28125 ft | 414 kts | 265° |
| 2026-05-07 18:29 | 34.98372 | 138.90461 | 28489 ft | 416 kts | 265° |
| 2026-05-07 18:29 | 34.98192 | 138.86931 | 28832 ft | 419 kts | 265° |
| 2026-05-07 18:30 | 34.98006 | 138.83371 | 29141 ft | 422 kts | 265° |
| 2026-05-07 18:30 | 34.97816 | 138.79784 | 29493 ft | 425 kts | 265° |
| 2026-05-07 18:30 | 34.97625 | 138.76190 | 29840 ft | 427 kts | 265° |
| 2026-05-07 18:30 | 34.97434 | 138.72605 | 30144 ft | 430 kts | 265° |
| 2026-05-07 18:31 | 34.97240 | 138.68969 | 30473 ft | 431 kts | 265° |
| 2026-05-07 18:31 | 34.97044 | 138.65324 | 30792 ft | 432 kts | 265° |
| 2026-05-07 18:31 | 34.96845 | 138.61652 | 31120 ft | 433 kts | 265° |
| 2026-05-07 18:31 | 34.96645 | 138.57980 | 31528 ft | 432 kts | 265° |
| 2026-05-07 18:32 | 34.96445 | 138.54324 | 31698 ft | 430 kts | 265° |
| 2026-05-07 18:32 | 34.96045 | 138.47076 | 31888 ft | 428 kts | 265° |
| 2026-05-07 18:33 | 34.95637 | 138.39774 | 31892 ft | 439 kts | 265° |
| 2026-05-07 18:33 | 34.95212 | 138.32258 | 31893 ft | 446 kts | 265° |
| 2026-05-07 18:34 | 34.94783 | 138.24720 | 31888 ft | 446 kts | 264° |
| 2026-05-07 18:34 | 34.94349 | 138.17186 | 31887 ft | 445 kts | 264° |
| 2026-05-07 18:35 | 34.93910 | 138.09643 | 31886 ft | 446 kts | 264° |
| 2026-05-07 18:35 | 34.93467 | 138.02123 | 31891 ft | 445 kts | 264° |
| 2026-05-07 18:36 | 34.93018 | 137.94593 | 31894 ft | 446 kts | 264° |
| 2026-05-07 18:36 | 34.92568 | 137.87105 | 31897 ft | 445 kts | 264° |
| 2026-05-07 18:37 | 34.92110 | 137.79579 | 31899 ft | 446 kts | 264° |
| 2026-05-07 18:37 | 34.91643 | 137.72050 | 31903 ft | 445 kts | 263° |
| 2026-05-07 18:38 | 34.90457 | 137.64669 | 31893 ft | 445 kts | 252° |
| 2026-05-07 18:38 | 34.88368 | 137.57573 | 31895 ft | 444 kts | 250° |
| 2026-05-07 18:39 | 34.86249 | 137.50505 | 31893 ft | 444 kts | 250° |
| 2026-05-07 18:39 | 34.84154 | 137.43431 | 31889 ft | 444 kts | 251° |
| 2026-05-07 18:40 | 34.82138 | 137.36320 | 31889 ft | 444 kts | 251° |
| 2026-05-07 18:40 | 34.80115 | 137.29221 | 31883 ft | 444 kts | 251° |
| 2026-05-07 18:41 | 34.78075 | 137.22117 | 31882 ft | 444 kts | 251° |
| 2026-05-07 18:41 | 34.76032 | 137.15028 | 31880 ft | 444 kts | 250° |
| 2026-05-07 18:42 | 34.73985 | 137.07946 | 31882 ft | 444 kts | 250° |
| 2026-05-07 18:42 | 34.71935 | 137.00870 | 31881 ft | 444 kts | 250° |
| 2026-05-07 18:43 | 34.69671 | 136.93898 | 31882 ft | 444 kts | 244° |
| 2026-05-07 18:43 | 34.66835 | 136.87238 | 31882 ft | 443 kts | 243° |
| 2026-05-07 18:44 | 34.64012 | 136.80583 | 31880 ft | 443 kts | 243° |
| 2026-05-07 18:44 | 34.61189 | 136.73937 | 31882 ft | 442 kts | 243° |
| 2026-05-07 18:45 | 34.58366 | 136.67309 | 31884 ft | 441 kts | 243° |
| 2026-05-07 18:45 | 34.55559 | 136.60733 | 31881 ft | 440 kts | 243° |
| 2026-05-07 18:46 | 34.52745 | 136.54152 | 31885 ft | 439 kts | 243° |
| 2026-05-07 18:46 | 34.49932 | 136.47587 | 31886 ft | 439 kts | 243° |
| 2026-05-07 18:47 | 34.47113 | 136.41018 | 31886 ft | 439 kts | 243° |
| 2026-05-07 18:47 | 34.44290 | 136.34456 | 31888 ft | 438 kts | 243° |
| 2026-05-07 18:48 | 34.41482 | 136.27940 | 31882 ft | 441 kts | 243° |
| 2026-05-07 18:48 | 34.38630 | 136.21335 | 31890 ft | 442 kts | 243° |
| 2026-05-07 18:49 | 34.35876 | 136.14677 | 31894 ft | 442 kts | 248° |
| 2026-05-07 18:49 | 34.34089 | 136.07624 | 31897 ft | 442 kts | 257° |
| 2026-05-07 18:50 | 34.33010 | 136.01531 | 31902 ft | 443 kts | 257° |
| 2026-05-07 18:50 | 34.31486 | 135.93075 | 31900 ft | 442 kts | 257° |
| 2026-05-07 18:51 | 34.30171 | 135.85824 | 31896 ft | 441 kts | 256° |
| 2026-05-07 18:51 | 34.28850 | 135.78563 | 31900 ft | 442 kts | 256° |
| 2026-05-07 18:52 | 34.27749 | 135.72537 | 31899 ft | 442 kts | 256° |
| 2026-05-07 18:52 | 34.26418 | 135.65272 | 31900 ft | 443 kts | 256° |
| 2026-05-07 18:53 | 34.25080 | 135.57998 | 31897 ft | 443 kts | 256° |
| 2026-05-07 18:53 | 34.23750 | 135.50776 | 31669 ft | 432 kts | 256° |
| 2026-05-07 18:53 | 34.23103 | 135.47275 | 31165 ft | 425 kts | 256° |
| 2026-05-07 18:54 | 34.22454 | 135.43776 | 30261 ft | 429 kts | 256° |
| 2026-05-07 18:54 | 34.21806 | 135.40282 | 29678 ft | 424 kts | 256° |
| 2026-05-07 18:54 | 34.21165 | 135.36838 | 29183 ft | 415 kts | 256° |
| 2026-05-07 18:54 | 34.20539 | 135.33474 | 28666 ft | 408 kts | 256° |
| 2026-05-07 18:55 | 34.19913 | 135.30117 | 27771 ft | 410 kts | 256° |
| 2026-05-07 18:55 | 34.19287 | 135.26772 | 27249 ft | 404 kts | 256° |
| 2026-05-07 18:55 | 34.18674 | 135.23495 | 26703 ft | 398 kts | 256° |
| 2026-05-07 18:55 | 34.18067 | 135.20253 | 26126 ft | 394 kts | 256° |
| 2026-05-07 18:56 | 34.17421 | 135.17060 | 25543 ft | 389 kts | 251° |
| 2026-05-07 18:56 | 34.16314 | 135.14116 | 25056 ft | 383 kts | 239° |
| 2026-05-07 18:56 | 34.14718 | 135.11570 | 24452 ft | 380 kts | 227° |
| 2026-05-07 18:56 | 34.12713 | 135.09555 | 23952 ft | 371 kts | 216° |
| 2026-05-07 18:57 | 34.10489 | 135.08012 | 23311 ft | 369 kts | 213° |
| 2026-05-07 18:57 | 34.08220 | 135.06483 | 22539 ft | 376 kts | 213° |
| 2026-05-07 18:57 | 34.05935 | 135.04937 | 21773 ft | 377 kts | 213° |
| 2026-05-07 18:57 | 34.03647 | 135.03389 | 21029 ft | 377 kts | 213° |
| 2026-05-07 18:58 | 34.01359 | 135.01844 | 20303 ft | 376 kts | 213° |
| 2026-05-07 18:58 | 33.99106 | 135.00324 | 19596 ft | 375 kts | 212° |
| 2026-05-07 18:58 | 33.96832 | 134.98790 | 18906 ft | 373 kts | 212° |
| 2026-05-07 18:58 | 33.94564 | 134.97262 | 18228 ft | 372 kts | 212° |
| 2026-05-07 18:59 | 33.92309 | 134.95743 | 17455 ft | 370 kts | 212° |
| 2026-05-07 18:59 | 33.90067 | 134.94234 | 16697 ft | 369 kts | 212° |
| 2026-05-07 18:59 | 33.87832 | 134.92730 | 15950 ft | 367 kts | 212° |
| 2026-05-07 18:59 | 33.85608 | 134.91235 | 15227 ft | 365 kts | 212° |
| 2026-05-07 19:00 | 33.83393 | 134.89746 | 14600 ft | 362 kts | 212° |
| 2026-05-07 19:00 | 33.81244 | 134.88304 | 14485 ft | 344 kts | 213° |
| 2026-05-07 19:00 | 33.79419 | 134.86640 | 14260 ft | 327 kts | 228° |
| 2026-05-07 19:00 | 33.78118 | 134.84431 | 14033 ft | 326 kts | 244° |
| 2026-05-07 19:01 | 33.77410 | 134.81826 | 13718 ft | 332 kts | 259° |
| 2026-05-07 19:01 | 33.77297 | 134.79021 | 13105 ft | 339 kts | 268° |
| 2026-05-07 19:01 | 33.77299 | 134.76189 | 12530 ft | 338 kts | 268° |
| 2026-05-07 19:01 | 33.77300 | 134.73366 | 11944 ft | 336 kts | 268° |
| 2026-05-07 19:02 | 33.77294 | 134.70564 | 11331 ft | 335 kts | 268° |
| 2026-05-07 19:02 | 33.77282 | 134.67774 | 10788 ft | 332 kts | 268° |
| 2026-05-07 19:02 | 33.77351 | 134.65020 | 10482 ft | 325 kts | 276° |
| 2026-05-07 19:02 | 33.78089 | 134.62493 | 10343 ft | 326 kts | 297° |
| 2026-05-07 19:03 | 33.79600 | 134.60396 | 10223 ft | 339 kts | 318° |
| 2026-05-07 19:03 | 33.81549 | 134.58790 | 10117 ft | 339 kts | 322° |
| 2026-05-07 19:03 | 33.83521 | 134.57239 | 10014 ft | 337 kts | 322° |
| 2026-05-07 19:03 | 33.85326 | 134.55481 | 10013 ft | 332 kts | 307° |
| 2026-05-07 19:04 | 33.86502 | 134.53140 | 10011 ft | 325 kts | 287° |
| 2026-05-07 19:04 | 33.87153 | 134.50582 | 10010 ft | 323 kts | 283° |
| 2026-05-07 19:04 | 33.87779 | 134.47998 | 10002 ft | 321 kts | 283° |
| 2026-05-07 19:04 | 33.88426 | 134.45307 | 10008 ft | 350 kts | 283° |
| 2026-05-07 19:05 | 33.89187 | 134.42396 | 10015 ft | 380 kts | 289° |
| 2026-05-07 19:05 | 33.90410 | 134.39517 | 10014 ft | 391 kts | 300° |
| 2026-05-07 19:05 | 33.92066 | 134.36906 | 10020 ft | 393 kts | 306° |
| 2026-05-07 19:05 | 33.93802 | 134.34343 | 10018 ft | 394 kts | 306° |
| 2026-05-07 19:06 | 33.95526 | 134.31784 | 10024 ft | 393 kts | 306° |
| 2026-05-07 19:06 | 33.99606 | 134.27443 | 10021 ft | 399 kts | 324° |
| 2026-05-07 19:06 | 34.02029 | 134.25832 | 10015 ft | 391 kts | 328° |
| 2026-05-07 19:07 | 34.04356 | 134.24318 | 10017 ft | 369 kts | 328° |
| 2026-05-07 19:07 | 34.06547 | 134.22882 | 10012 ft | 348 kts | 328° |
| 2026-05-07 19:07 | 34.08726 | 134.21773 | 10008 ft | 332 kts | 338° |
| 2026-05-07 19:07 | 34.10906 | 134.21186 | 10003 ft | 311 kts | 348° |
| 2026-05-07 19:08 | 34.13007 | 134.20922 | 10017 ft | 297 kts | 349° |
| 2026-05-07 19:08 | 34.15071 | 134.20646 | 10015 ft | 300 kts | 349° |
| 2026-05-07 19:08 | 34.17170 | 134.20570 | 10006 ft | 306 kts | 5° |
| 2026-05-07 19:08 | 34.19170 | 134.21478 | 10005 ft | 313 kts | 31° |
| 2026-05-07 19:09 | 34.20715 | 134.23298 | 9998 ft | 319 kts | 56° |
| 2026-05-07 19:09 | 34.21566 | 134.25749 | 9866 ft | 316 kts | 82° |
| 2026-05-07 19:09 | 34.21541 | 134.28377 | 9793 ft | 311 kts | 103° |
| 2026-05-07 19:09 | 34.21054 | 134.30918 | 9736 ft | 313 kts | 107° |
| 2026-05-07 19:10 | 34.20563 | 134.33481 | 9671 ft | 312 kts | 104° |
| 2026-05-07 19:10 | 34.20187 | 134.36059 | 9602 ft | 312 kts | 101° |
| 2026-05-07 19:10 | 34.19910 | 134.38661 | 9532 ft | 312 kts | 99° |
| 2026-05-07 19:10 | 34.19691 | 134.41270 | 9471 ft | 312 kts | 98° |
| 2026-05-07 19:11 | 34.19494 | 134.43878 | 9407 ft | 310 kts | 97° |
| 2026-05-07 19:11 | 34.19307 | 134.46471 | 9335 ft | 311 kts | 97° |
| 2026-05-07 19:11 | 34.19120 | 134.49076 | 9268 ft | 311 kts | 97° |
| 2026-05-07 19:11 | 34.18933 | 134.51669 | 9214 ft | 309 kts | 97° |
| 2026-05-07 19:12 | 34.18741 | 134.54252 | 9139 ft | 309 kts | 98° |
| 2026-05-07 19:12 | 34.18569 | 134.56839 | 9075 ft | 310 kts | 92° |
| 2026-05-07 19:12 | 34.18982 | 134.59389 | 9019 ft | 312 kts | 66° |
| 2026-05-07 19:12 | 34.20167 | 134.61578 | 8953 ft | 313 kts | 50° |
| 2026-05-07 19:13 | 34.21553 | 134.63564 | 8879 ft | 312 kts | 48° |
| 2026-05-07 19:13 | 34.22993 | 134.65563 | 8816 ft | 311 kts | 48° |
| 2026-05-07 19:13 | 34.24387 | 134.67511 | 8756 ft | 311 kts | 48° |
| 2026-05-07 19:13 | 34.25791 | 134.69503 | 8692 ft | 311 kts | 49° |
| 2026-05-07 19:14 | 34.27177 | 134.71492 | 8625 ft | 311 kts | 49° |
| 2026-05-07 19:14 | 34.28563 | 134.73495 | 8554 ft | 310 kts | 49° |
| 2026-05-07 19:14 | 34.29949 | 134.75503 | 8494 ft | 310 kts | 49° |
| 2026-05-07 19:14 | 34.31325 | 134.77498 | 8429 ft | 309 kts | 49° |
| 2026-05-07 19:15 | 34.32710 | 134.79507 | 8367 ft | 309 kts | 49° |
| 2026-05-07 19:15 | 34.34084 | 134.81502 | 8298 ft | 308 kts | 49° |
| 2026-05-07 19:15 | 34.35457 | 134.83495 | 8235 ft | 308 kts | 49° |
| 2026-05-07 19:15 | 34.36824 | 134.85481 | 8166 ft | 307 kts | 49° |
| 2026-05-07 19:16 | 34.38193 | 134.87472 | 8105 ft | 308 kts | 49° |
| 2026-05-07 19:16 | 34.39561 | 134.89465 | 8040 ft | 307 kts | 49° |
| 2026-05-07 19:16 | 34.40923 | 134.91447 | 7983 ft | 306 kts | 49° |
| 2026-05-07 19:16 | 34.42258 | 134.93392 | 7932 ft | 299 kts | 49° |
| 2026-05-07 19:17 | 34.43567 | 134.95299 | 7845 ft | 288 kts | 49° |
| 2026-05-07 19:17 | 34.44826 | 134.97136 | 7742 ft | 277 kts | 49° |
| 2026-05-07 19:17 | 34.46030 | 134.98894 | 7638 ft | 266 kts | 49° |
| 2026-05-07 19:17 | 34.47198 | 135.00598 | 7444 ft | 259 kts | 49° |
| 2026-05-07 19:18 | 34.48318 | 135.02236 | 7344 ft | 246 kts | 49° |
| 2026-05-07 19:18 | 34.49367 | 135.03770 | 7289 ft | 225 kts | 49° |
| 2026-05-07 19:18 | 34.50301 | 135.05139 | 7147 ft | 196 kts | 49° |
| 2026-05-07 19:18 | 34.51119 | 135.06339 | 6968 ft | 175 kts | 48° |
| 2026-05-07 19:19 | 34.51876 | 135.07447 | 6687 ft | 168 kts | 48° |
| 2026-05-07 19:19 | 34.52621 | 135.08533 | 6354 ft | 166 kts | 48° |
| 2026-05-07 19:19 | 34.53357 | 135.09607 | 6013 ft | 165 kts | 48° |
| 2026-05-07 19:19 | 34.54087 | 135.10671 | 5670 ft | 163 kts | 48° |
| 2026-05-07 19:20 | 34.54806 | 135.11723 | 5329 ft | 161 kts | 49° |
| 2026-05-07 19:20 | 34.55518 | 135.12763 | 5009 ft | 159 kts | 49° |
| 2026-05-07 19:20 | 34.56218 | 135.13788 | 4684 ft | 157 kts | 49° |
| 2026-05-07 19:20 | 34.56913 | 135.14804 | 4327 ft | 155 kts | 49° |
| 2026-05-07 19:21 | 34.57582 | 135.15785 | 4115 ft | 150 kts | 49° |
| 2026-05-07 19:21 | 34.58270 | 135.16792 | 4005 ft | 155 kts | 50° |
| 2026-05-07 19:21 | 34.58953 | 135.17794 | 4000 ft | 155 kts | 50° |
| 2026-05-07 19:21 | 34.59644 | 135.18807 | 4000 ft | 155 kts | 50° |
| 2026-05-07 19:22 | 34.60324 | 135.19824 | 3996 ft | 155 kts | 56° |
| 2026-05-07 19:22 | 34.60597 | 135.21050 | 3900 ft | 149 kts | 94° |
| 2026-05-07 19:22 | 34.60541 | 135.22297 | 3630 ft | 148 kts | 98° |
| 2026-05-07 19:22 | 34.60431 | 135.23546 | 3299 ft | 148 kts | 101° |
| 2026-05-07 19:23 | 34.60269 | 135.24778 | 2973 ft | 147 kts | 104° |
| 2026-05-07 19:23 | 34.60056 | 135.25974 | 2727 ft | 140 kts | 108° |
| 2026-05-07 19:23 | 34.59790 | 135.27147 | 2626 ft | 146 kts | 111° |
| 2026-05-07 19:23 | 34.59472 | 135.28297 | 2602 ft | 143 kts | 115° |
| 2026-05-07 19:24 | 34.59101 | 135.29426 | 2600 ft | 144 kts | 118° |
| 2026-05-07 19:24 | 34.58681 | 135.30525 | 2600 ft | 143 kts | 122° |
| 2026-05-07 19:24 | 34.58211 | 135.31590 | 2601 ft | 143 kts | 125° |
| 2026-05-07 19:24 | 34.57700 | 135.32612 | 2599 ft | 141 kts | 128° |
| 2026-05-07 19:25 | 34.57153 | 135.33582 | 2599 ft | 141 kts | 131° |
| 2026-05-07 19:25 | 34.56558 | 135.34522 | 2598 ft | 140 kts | 134° |
| 2026-05-07 19:25 | 34.55926 | 135.35417 | 2597 ft | 139 kts | 137° |
| 2026-05-07 19:25 | 34.55278 | 135.36255 | 2468 ft | 134 kts | 144° |
| 2026-05-07 19:26 | 34.54460 | 135.36694 | 2148 ft | 128 kts | 179° |
| 2026-05-07 19:26 | 34.53606 | 135.36482 | 1786 ft | 127 kts | 210° |
| 2026-05-07 19:26 | 34.52976 | 135.35741 | 1511 ft | 124 kts | 233° |
| 2026-05-07 19:26 | 34.52429 | 135.34871 | 1307 ft | 131 kts | 231° |
| 2026-05-07 19:27 | 34.51849 | 135.34021 | 1148 ft | 130 kts | 230° |
| 2026-05-07 19:27 | 34.51275 | 135.33169 | 1139 ft | 131 kts | 231° |
| 2026-05-07 19:27 | 34.50704 | 135.32316 | 1252 ft | 130 kts | 230° |
| 2026-05-07 19:27 | 34.50135 | 135.31467 | 1363 ft | 130 kts | 230° |
| 2026-05-07 19:28 | 34.49564 | 135.30616 | 1432 ft | 132 kts | 230° |
| 2026-05-07 19:28 | 34.48991 | 135.29761 | 1247 ft | 129 kts | 230° |
| 2026-05-07 19:28 | 34.48422 | 135.28912 | 1077 ft | 131 kts | 230° |
| 2026-05-07 19:28 | 34.47842 | 135.28047 | 909 ft | 132 kts | 231° |
| 2026-05-07 19:29 | 34.47260 | 135.27181 | 733 ft | 132 kts | 231° |
| 2026-05-07 19:29 | 34.46681 | 135.26317 | 566 ft | 132 kts | 231° |
| 2026-05-07 19:29 | 34.46099 | 135.25449 | 385 ft | 133 kts | 231° |
| 2026-05-07 19:29 | 34.45518 | 135.24584 | 209 ft | 132 kts | 231° |
| 2026-05-07 19:30 | 34.44942 | 135.23725 | 43 ft | 129 kts | 231° |
| 2026-05-07 19:30 | 34.44454 | 135.23000 | 30 ft | 88 kts | 230° |
| 2026-05-07 19:30 | 34.44154 | 135.22577 | 31 ft | 50 kts | 218° |
| 2026-05-07 19:30 | 34.43938 | 135.22442 | 32 ft | 11 kts | 201° |
| 2026-05-07 19:31 | 34.43934 | 135.22440 | 32 ft | 0 kts | 201° |
| 2026-05-07 19:31 | 34.43908 | 135.22437 | 32 ft | 10 kts | 175° |
| 2026-05-07 19:31 | 34.43805 | 135.22524 | 30 ft | 23 kts | 143° |
| 2026-05-07 19:32 | 34.43666 | 135.22658 | 30 ft | 27 kts | 138° |
| 2026-05-07 19:32 | 34.43514 | 135.22809 | 30 ft | 30 kts | 140° |
| 2026-05-07 19:32 | 34.43520 | 135.22956 | 30 ft | 17 kts | 50° |
| 2026-05-07 19:32 | 34.43574 | 135.23028 | 32 ft | 0 kts | 53° |